Time;durP1;ratioP1;P1;durP2;ratioP2;P2;SDS_P1;SDS_P2;PMS_P1;PMS_P2;Temp;Humidity;BMP_temperature;BMP_pressure;BME280_temperature;BME280_humidity;BME280_pressure;Samples;Min_cycle;Max_cycle;Signal;HPM_P1;HPM_P2
2022/05/08 00:00:34;;;;;;;14.18;11.30;;;15.40;99.90;;;;;;5094941;28;20024;-58
2022/05/08 00:03:00;;;;;;;19.08;14.55;;;15.60;99.90;;;;;;5094954;28;20032;-58
2022/05/08 00:05:27;;;;;;;20.00;15.73;;;15.70;99.90;;;;;;5094811;28;20024;-58
2022/05/08 00:07:53;;;;;;;22.67;16.35;;;15.70;99.90;;;;;;5094751;28;20486;-58
2022/05/08 00:10:19;;;;;;;18.35;14.65;;;15.70;99.90;;;;;;5094423;28;20478;-58
2022/05/08 00:12:45;;;;;;;24.23;18.52;;;15.70;99.90;;;;;;5095016;28;20038;-58
2022/05/08 00:15:11;;;;;;;24.73;18.35;;;15.80;99.90;;;;;;5094654;28;20024;-58
2022/05/08 00:17:36;;;;;;;24.10;18.15;;;15.70;99.90;;;;;;5076282;28;20453;-58
2022/05/08 00:20:05;;;;;;;21.65;17.08;;;15.60;99.90;;;;;;5094525;28;20052;-58
2022/05/08 00:22:31;;;;;;;29.77;20.30;;;15.60;99.90;;;;;;5094470;28;20073;-58
2022/05/08 00:24:56;;;;;;;32.30;20.15;;;15.50;99.90;;;;;;5094236;28;20055;-58
2022/05/08 00:27:22;;;;;;;25.17;18.20;;;15.50;99.90;;;;;;5094659;28;20052;-58
2022/05/08 00:29:48;;;;;;;40.13;21.10;;;15.40;99.90;;;;;;5094570;28;20038;-58
2022/05/08 00:32:14;;;;;;;40.33;22.23;;;15.50;99.90;;;;;;5094251;28;20028;-59
2022/05/08 00:34:39;;;;;;;39.90;22.83;;;15.40;99.90;;;;;;5094125;28;20364;-58
2022/05/08 00:37:05;;;;;;;42.42;21.42;;;15.30;99.90;;;;;;5094492;28;20069;-58
2022/05/08 00:39:32;;;;;;;24.67;17.13;;;15.30;99.90;;;;;;5094010;28;20031;-58
2022/05/08 00:42:01;;;;;;;26.33;16.05;;;15.30;99.90;;;;;;5094242;28;20117;-58
2022/05/08 00:44:26;;;;;;;27.23;16.77;;;15.40;99.90;;;;;;5094271;28;20027;-58
2022/05/08 00:46:52;;;;;;;23.92;16.20;;;15.40;99.90;;;;;;5094144;28;20020;-58
2022/05/08 00:49:18;;;;;;;20.70;14.82;;;15.40;99.90;;;;;;5093989;28;20028;-58
2022/05/08 00:51:47;;;;;;;22.85;14.75;;;15.50;99.90;;;;;;5094125;28;20470;-58
2022/05/08 00:54:14;;;;;;;21.88;15.10;;;15.50;99.90;;;;;;5094042;28;20032;-58
2022/05/08 00:56:41;;;;;;;29.75;16.88;;;15.60;99.90;;;;;;5093688;28;20054;-58
2022/05/08 00:59:06;;;;;;;37.55;17.98;;;15.60;99.90;;;;;;5094107;28;20377;-58
2022/05/08 01:01:32;;;;;;;32.75;16.90;;;15.50;99.90;;;;;;5093858;28;20107;-58
2022/05/08 01:03:58;;;;;;;47.00;19.73;;;15.40;99.90;;;;;;5093873;28;20043;-58
2022/05/08 01:06:24;;;;;;;27.05;15.60;;;15.20;99.90;;;;;;5093913;28;20383;-58
2022/05/08 01:08:50;;;;;;;22.63;14.40;;;15.10;99.90;;;;;;5093622;28;20027;-58
2022/05/08 01:11:18;;;;;;;33.78;16.30;;;15.10;99.90;;;;;;5093932;28;20016;-58
2022/05/08 01:13:44;;;;;;;32.10;16.17;;;15.10;99.90;;;;;;5093921;28;20056;-58
2022/05/08 01:16:12;;;;;;;17.58;12.43;;;15.00;99.90;;;;;;5093588;28;20027;-58
2022/05/08 01:18:39;;;;;;;14.48;10.40;;;14.90;99.90;;;;;;5093827;28;20028;-60
2022/05/08 01:21:08;;;;;;;11.00;8.90;;;14.90;99.90;;;;;;5093809;28;20396;-58
2022/05/08 01:23:34;;;;;;;17.52;11.35;;;15.00;99.90;;;;;;5093183;28;20039;-58
2022/05/08 01:25:59;;;;;;;11.45;9.35;;;15.10;99.90;;;;;;5093398;28;20020;-58
2022/05/08 01:28:26;;;;;;;15.75;10.85;;;15.10;99.90;;;;;;5093443;28;20621;-58
2022/05/08 01:30:53;;;;;;;15.95;10.85;;;15.10;99.90;;;;;;5093433;28;20509;-58
2022/05/08 01:33:20;;;;;;;22.27;11.77;;;15.00;99.90;;;;;;5093446;28;20070;-58
2022/05/08 01:35:46;;;;;;;13.93;9.95;;;15.00;99.90;;;;;;5093540;28;20020;-58
2022/05/08 01:38:14;;;;;;;15.07;10.73;;;15.00;99.90;;;;;;5093117;28;20467;-58
2022/05/08 01:40:41;;;;;;;52.45;20.20;;;15.10;99.90;;;;;;5093584;28;20026;-58
2022/05/08 01:43:07;;;;;;;30.27;14.35;;;15.10;99.90;;;;;;5093396;28;20028;-58
2022/05/08 01:45:34;;;;;;;17.75;11.05;;;14.90;99.90;;;;;;5097122;28;20363;-58
2022/05/08 01:50:44;;;;;;;13.02;8.48;;;15.00;99.90;;;;;;5097377;28;20023;-58
2022/05/08 01:53:10;;;;;;;14.70;9.98;;;15.10;99.90;;;;;;5097346;28;20115;-58
2022/05/08 01:55:36;;;;;;;10.60;8.13;;;15.20;99.90;;;;;;5097004;28;20131;-58
2022/05/08 01:58:02;;;;;;;13.88;8.43;;;15.20;99.90;;;;;;5097315;28;20024;-58
2022/05/08 02:00:29;;;;;;;13.60;7.78;;;15.30;99.90;;;;;;5097303;28;20024;-58
2022/05/08 02:03:00;;;;;;;25.20;11.35;;;15.30;99.90;;;;;;5097300;28;20024;-58
2022/05/08 02:05:28;;;;;;;13.35;9.32;;;15.30;99.90;;;;;;5097456;28;20020;-58
2022/05/08 02:07:54;;;;;;;12.40;8.13;;;15.20;99.90;;;;;;5096972;28;20024;-58
2022/05/08 02:10:20;;;;;;;45.30;13.45;;;15.20;99.90;;;;;;5096974;28;20020;-58
2022/05/08 02:12:46;;;;;;;10.40;7.22;;;15.20;99.90;;;;;;5097119;28;20018;-58
2022/05/08 02:15:14;;;;;;;13.18;7.25;;;15.20;99.90;;;;;;5097166;28;20016;-58
2022/05/08 02:17:40;;;;;;;9.70;7.00;;;15.20;99.90;;;;;;5097133;28;20116;-58
2022/05/08 02:20:07;;;;;;;10.48;7.53;;;15.20;99.90;;;;;;5097097;28;20048;-58
2022/05/08 02:22:34;;;;;;;13.82;8.35;;;15.30;99.90;;;;;;5096714;28;20529;-58
2022/05/08 02:25:00;;;;;;;25.85;10.48;;;15.20;99.90;;;;;;5096677;28;20403;-58
2022/05/08 02:27:33;;;;;;;10.88;7.63;;;15.20;99.90;;;;;;5096912;28;20020;-58
2022/05/08 02:29:59;;;;;;;10.27;7.65;;;15.20;99.90;;;;;;5096738;28;20020;-58
2022/05/08 02:32:25;;;;;;;10.60;7.13;;;15.20;99.90;;;;;;5096633;28;20368;-58
2022/05/08 02:34:50;;;;;;;10.13;6.78;;;15.20;99.90;;;;;;5096560;28;20020;-58
2022/05/08 02:37:16;;;;;;;13.30;7.00;;;15.20;99.90;;;;;;5096550;28;20020;-58
2022/05/08 02:39:42;;;;;;;10.60;6.35;;;15.20;99.90;;;;;;5096502;28;20024;-58
2022/05/08 02:42:07;;;;;;;9.27;6.65;;;15.20;99.90;;;;;;5096640;28;20537;-58
2022/05/08 02:44:33;;;;;;;18.27;6.32;;;15.10;99.90;;;;;;5096527;28;20390;-58
2022/05/08 02:46:59;;;;;;;7.93;6.00;;;15.10;99.90;;;;;;5096504;28;20382;-58
2022/05/08 02:49:24;;;;;;;7.07;5.15;;;15.10;99.90;;;;;;5096056;28;20078;-58
2022/05/08 02:51:50;;;;;;;11.43;7.25;;;15.10;99.90;;;;;;5096466;28;20016;-58
2022/05/08 02:54:16;;;;;;;7.82;5.38;;;15.00;99.90;;;;;;5096408;28;20030;-58
2022/05/08 02:59:26;;;;;;;6.20;4.60;;;14.90;99.90;;;;;;5096244;28;20027;-58
2022/05/08 03:01:51;;;;;;;11.55;6.53;;;14.90;99.90;;;;;;5096080;28;20029;-58
2022/05/08 03:04:18;;;;;;;15.15;8.60;;;14.90;99.90;;;;;;5095945;28;20487;-57
2022/05/08 03:06:43;;;;;;;9.48;6.80;;;14.80;99.90;;;;;;5096079;28;20064;-58
2022/05/08 03:09:09;;;;;;;11.25;7.15;;;14.70;99.90;;;;;;5095932;28;20423;-58
2022/05/08 03:11:36;;;;;;;9.50;6.07;;;14.80;99.90;;;;;;5095906;28;20058;-58
2022/05/08 03:14:02;;;;;;;10.98;6.70;;;14.80;99.90;;;;;;5096159;28;20031;-58
2022/05/08 03:16:28;;;;;;;10.30;6.80;;;14.80;99.90;;;;;;5095751;28;20093;-57
2022/05/08 03:18:55;;;;;;;9.05;5.90;;;14.70;99.90;;;;;;5095453;28;20024;-58
2022/05/08 03:21:22;;;;;;;7.82;5.68;;;14.70;99.90;;;;;;5095686;28;20531;-58
2022/05/08 03:23:48;;;;;;;12.55;6.00;;;14.70;99.90;;;;;;5095567;28;20099;-58
2022/05/08 03:26:14;;;;;;;7.47;4.97;;;14.80;99.90;;;;;;5095514;28;20054;-58
2022/05/08 03:28:41;;;;;;;6.70;5.10;;;14.80;99.90;;;;;;5095862;28;20518;-58
2022/05/08 03:31:08;;;;;;;7.82;5.10;;;14.90;99.90;;;;;;5095628;28;20066;-58
2022/05/08 03:33:36;;;;;;;7.38;4.75;;;14.80;99.90;;;;;;5095279;28;20024;-58
2022/05/08 03:36:03;;;;;;;23.10;7.78;;;14.90;99.90;;;;;;5095449;28;20016;-58
2022/05/08 03:38:28;;;;;;;6.05;4.80;;;14.90;99.90;;;;;;5095418;28;20031;-58
2022/05/08 03:40:55;;;;;;;11.65;5.40;;;14.80;99.90;;;;;;5095544;28;20020;-57
2022/05/08 03:43:23;;;;;;;9.15;5.60;;;14.90;99.90;;;;;;5095491;28;20062;-58
2022/05/08 03:45:49;;;;;;;8.07;4.55;;;14.80;99.90;;;;;;5095511;28;20024;-58
2022/05/08 03:48:16;;;;;;;8.43;6.10;;;14.80;99.90;;;;;;5094916;28;20478;-58
2022/05/08 03:50:42;;;;;;;8.77;5.05;;;14.90;99.90;;;;;;5095182;28;20026;-57
2022/05/08 03:53:08;;;;;;;7.32;4.90;;;14.90;99.90;;;;;;5095239;28;20031;-58
2022/05/08 03:55:34;;;;;;;9.93;5.97;;;14.90;99.90;;;;;;5094808;28;20048;-58
2022/05/08 03:58:00;;;;;;;13.23;6.93;;;14.90;99.90;;;;;;5095061;28;20020;-58
2022/05/08 04:00:26;;;;;;;17.67;9.02;;;14.90;99.90;;;;;;5095029;28;20424;-58
2022/05/08 04:02:52;;;;;;;26.45;12.15;;;14.90;99.90;;;;;;5094508;28;20028;-58
2022/05/08 04:05:17;;;;;;;24.13;13.32;;;14.90;99.90;;;;;;5094858;28;20032;-58
2022/05/08 04:07:44;;;;;;;20.25;11.68;;;14.80;99.90;;;;;;5094082;28;20027;-58
2022/05/08 04:10:10;;;;;;;16.05;10.25;;;14.70;99.90;;;;;;5094884;28;20020;-58
2022/05/08 04:12:36;;;;;;;17.52;9.50;;;14.80;99.90;;;;;;5094728;28;20533;-58
2022/05/08 04:15:04;;;;;;;15.90;9.60;;;14.80;99.90;;;;;;5094989;28;20024;-58
2022/05/08 04:17:31;;;;;;;19.30;10.27;;;14.90;99.90;;;;;;5094425;28;20028;-58
2022/05/08 04:19:57;;;;;;;14.77;8.48;;;14.90;99.90;;;;;;5094874;28;20102;-58
2022/05/08 04:25:08;;;;;;;45.30;13.45;;;15.00;99.90;;;;;;5094455;28;20153;-58
2022/05/08 04:27:37;;;;;;;25.95;11.77;;;15.00;99.90;;;;;;5094582;28;20111;-58
2022/05/08 04:30:04;;;;;;;20.05;9.48;;;14.90;99.90;;;;;;5094403;28;20020;-58
2022/05/08 04:32:29;;;;;;;19.13;9.77;;;14.80;99.90;;;;;;5093969;28;20027;-58
2022/05/08 04:34:55;;;;;;;28.02;11.95;;;14.90;99.90;;;;;;5094603;28;20020;-58
2022/05/08 04:37:21;;;;;;;30.05;12.38;;;14.90;99.90;;;;;;5094325;28;20026;-58
2022/05/08 04:39:46;;;;;;;43.40;15.73;;;14.90;99.90;;;;;;5094348;28;20024;-58
2022/05/08 04:42:12;;;;;;;53.83;17.33;;;14.90;99.90;;;;;;5094218;28;20024;-58
2022/05/08 04:44:38;;;;;;;45.47;17.13;;;14.70;99.90;;;;;;5094204;28;20036;-58
2022/05/08 04:47:04;;;;;;;53.08;17.77;;;14.70;99.90;;;;;;5093845;28;20096;-58
2022/05/08 04:49:29;;;;;;;49.78;19.65;;;14.70;99.90;;;;;;5094245;28;20478;-58
2022/05/08 04:51:55;;;;;;;28.73;15.68;;;14.70;99.90;;;;;;5094021;28;20549;-58
2022/05/08 04:54:24;;;;;;;37.97;17.33;;;14.60;99.90;;;;;;5094232;28;20024;-58
2022/05/08 04:56:50;;;;;;;42.30;18.60;;;14.60;99.90;;;;;;5093635;28;20058;-58
2022/05/08 04:59:16;;;;;;;33.20;17.25;;;14.60;99.90;;;;;;5093982;28;20012;-58
2022/05/08 05:01:41;;;;;;;35.60;16.52;;;14.60;99.90;;;;;;5093627;28;20019;-58
2022/05/08 05:04:07;;;;;;;22.02;13.02;;;14.60;99.90;;;;;;5093961;28;20466;-58
2022/05/08 05:06:33;;;;;;;21.10;12.50;;;14.60;99.90;;;;;;5093961;28;20506;-58
2022/05/08 05:08:59;;;;;;;17.50;11.30;;;14.80;99.90;;;;;;5093790;28;20058;-58
2022/05/08 05:11:25;;;;;;;21.17;10.48;;;14.90;99.90;;;;;;5093511;28;20024;-58
2022/05/08 05:13:50;;;;;;;64.25;17.95;;;15.00;99.90;;;;;;5093919;28;20028;-58
2022/05/08 05:16:16;;;;;;;20.33;11.15;;;15.00;99.90;;;;;;5093404;28;20105;-58
2022/05/08 05:18:42;;;;;;;18.52;10.05;;;14.80;99.90;;;;;;5093496;28;20030;-58
2022/05/08 05:21:07;;;;;;;17.90;10.93;;;14.90;99.90;;;;;;5093527;28;20035;-58
2022/05/08 05:23:35;;;;;;;16.38;10.02;;;14.90;99.90;;;;;;5093444;28;20028;-58
2022/05/08 05:26:01;;;;;;;17.05;9.52;;;15.00;99.90;;;;;;5093417;28;20052;-60
2022/05/08 05:28:26;;;;;;;21.92;10.10;;;15.00;99.90;;;;;;5093740;28;20055;-58
2022/05/08 05:30:52;;;;;;;13.55;7.93;;;15.00;99.90;;;;;;5093181;28;20454;-58
2022/05/08 05:33:19;;;;;;;24.33;10.07;;;15.10;99.90;;;;;;5093350;28;20036;-58
2022/05/08 05:35:45;;;;;;;24.52;11.13;;;15.10;99.90;;;;;;5093326;28;20078;-58
2022/05/08 05:38:10;;;;;;;19.75;10.52;;;15.10;99.90;;;;;;5093314;28;20024;-58
2022/05/08 05:40:36;;;;;;;20.20;10.82;;;15.10;99.90;;;;;;5093297;28;20020;-58
2022/05/08 05:43:02;;;;;;;29.02;12.95;;;15.10;99.90;;;;;;5093181;28;20032;-58
2022/05/08 05:45:28;;;;;;;23.38;12.63;;;15.10;99.90;;;;;;5093410;28;20527;-58
2022/05/08 05:47:53;;;;;;;22.00;12.00;;;15.00;99.90;;;;;;5093255;28;20487;-58
2022/05/08 05:50:23;;;;;;;22.92;11.43;;;15.10;99.90;;;;;;5093489;28;20016;-58
2022/05/08 05:52:50;;;;;;;26.60;12.77;;;15.20;99.90;;;;;;5093389;28;20166;-58
2022/05/08 05:55:16;;;;;;;33.75;15.95;;;15.20;99.90;;;;;;5093160;28;20099;-58
2022/05/08 05:57:43;;;;;;;42.58;19.45;;;15.20;99.90;;;;;;5092877;28;20542;-58
2022/05/08 06:00:11;;;;;;;34.45;20.05;;;15.10;99.90;;;;;;5093451;28;20382;-58
2022/05/08 06:02:39;;;;;;;35.88;21.83;;;15.10;99.90;;;;;;5093093;28;20028;-58
2022/05/08 06:05:06;;;;;;;93.35;32.35;;;15.10;99.90;;;;;;5093293;28;20058;-58
2022/05/08 06:07:33;;;;;;;49.50;25.95;;;15.20;99.90;;;;;;5093068;28;20161;-58
2022/05/08 06:09:59;;;;;;;41.95;22.05;;;15.20;99.90;;;;;;5093224;28;20431;-58
2022/05/08 06:12:25;;;;;;;43.38;20.85;;;15.40;99.90;;;;;;5092785;28;20111;-58
2022/05/08 06:14:50;;;;;;;36.60;18.65;;;15.50;99.90;;;;;;5093160;28;20043;-58
2022/05/08 06:17:16;;;;;;;34.85;18.40;;;15.60;99.90;;;;;;5093253;28;20024;-58
2022/05/08 06:19:42;;;;;;;29.83;16.67;;;15.60;99.90;;;;;;5093132;28;20508;-58
2022/05/08 06:22:08;;;;;;;33.92;16.95;;;15.80;99.90;;;;;;5093481;28;20432;-58
2022/05/08 06:24:35;;;;;;;26.65;15.38;;;15.90;99.90;;;;;;5092945;28;20016;-58
2022/05/08 06:27:01;;;;;;;23.25;14.10;;;15.90;99.90;;;;;;5092650;28;20027;-58
2022/05/08 06:29:26;;;;;;;25.90;14.63;;;16.00;99.90;;;;;;5092905;28;20020;-58
2022/05/08 06:31:53;;;;;;;25.10;15.10;;;16.20;99.90;;;;;;5096790;28;20020;-58
2022/05/08 06:34:19;;;;;;;24.52;13.48;;;16.30;99.90;;;;;;5096683;28;20028;-58
2022/05/08 06:36:45;;;;;;;23.52;13.10;;;16.30;99.90;;;;;;5096544;28;20070;-59
2022/05/08 06:39:13;;;;;;;25.77;14.10;;;16.30;99.90;;;;;;5096516;28;20024;-58
2022/05/08 06:41:39;;;;;;;27.00;14.85;;;16.30;99.90;;;;;;5096355;28;20115;-58
2022/05/08 06:44:05;;;;;;;20.00;14.15;;;16.30;99.90;;;;;;5096289;28;20103;-58
2022/05/08 06:46:32;;;;;;;24.20;14.07;;;16.20;99.90;;;;;;5096702;28;20052;-58
2022/05/08 06:49:02;;;;;;;20.25;13.82;;;16.30;99.90;;;;;;5096389;28;20028;-58
2022/05/08 06:51:28;;;;;;;18.77;13.27;;;16.30;99.90;;;;;;5096243;28;20077;-58
2022/05/08 06:53:54;;;;;;;16.40;11.60;;;16.40;99.90;;;;;;5096277;28;20038;-58
2022/05/08 06:56:20;;;;;;;16.10;11.00;;;16.50;99.90;;;;;;5095967;28;20055;-58
2022/05/08 07:01:38;;;;;;;15.32;11.27;;;16.70;99.90;;;;;;5096119;28;20432;-58
2022/05/08 07:04:06;;;;;;;14.77;10.65;;;16.70;99.90;;;;;;5095987;28;20035;-58
2022/05/08 07:06:31;;;;;;;23.13;14.85;;;16.80;99.90;;;;;;5096060;28;20051;-58
2022/05/08 07:08:58;;;;;;;22.20;13.73;;;16.70;99.90;;;;;;5095963;28;20054;-59
2022/05/08 07:11:23;;;;;;;17.67;12.43;;;16.60;99.90;;;;;;5095956;28;20027;-58
2022/05/08 07:13:49;;;;;;;16.75;11.82;;;16.70;99.90;;;;;;5096107;28;20395;-58
2022/05/08 07:16:15;;;;;;;14.65;11.05;;;16.80;99.90;;;;;;5095819;28;20031;-58
2022/05/08 07:18:41;;;;;;;15.98;11.52;;;16.90;99.90;;;;;;5095789;28;20096;-58
2022/05/08 07:21:07;;;;;;;17.55;12.38;;;17.10;99.90;;;;;;5096049;28;20510;-58
2022/05/08 07:23:32;;;;;;;24.92;15.55;;;17.20;99.90;;;;;;5095764;28;20032;-58
2022/05/08 07:25:59;;;;;;;23.20;15.20;;;17.20;99.90;;;;;;5095363;28;20059;-58
2022/05/08 07:28:24;;;;;;;21.83;14.88;;;17.10;99.90;;;;;;5095914;28;20054;-58
2022/05/08 07:30:50;;;;;;;20.45;14.80;;;17.00;99.90;;;;;;5095696;28;20052;-58
2022/05/08 07:33:16;;;;;;;18.00;13.27;;;17.00;99.90;;;;;;5095498;28;20036;-58
2022/05/08 07:38:31;;;;;;;17.58;12.60;;;17.20;99.90;;;;;;5095550;28;20027;-58
2022/05/08 07:40:57;;;;;;;17.95;13.38;;;17.30;99.90;;;;;;5094510;28;20031;-58
2022/05/08 07:43:26;;;;;;;20.30;13.75;;;17.40;99.90;;;;;;5094717;28;20125;-59
2022/05/08 07:45:52;;;;;;;21.13;15.23;;;17.50;99.90;;;;;;5095374;28;20363;-58
2022/05/08 07:48:18;;;;;;;22.98;14.85;;;17.50;99.90;;;;;;5095435;28;20047;-58
2022/05/08 07:50:45;;;;;;;21.10;14.35;;;17.50;99.90;;;;;;5095242;28;20438;-58
2022/05/08 07:53:12;;;;;;;22.13;15.73;;;17.60;99.90;;;;;;5095227;28;20145;-58
2022/05/08 07:55:38;;;;;;;27.10;16.70;;;17.70;99.90;;;;;;5094618;28;20162;-58
2022/05/08 07:58:04;;;;;;;27.13;18.35;;;17.80;99.90;;;;;;5095133;28;20020;-58
2022/05/08 08:00:29;;;;;;;22.98;16.10;;;18.00;99.90;;;;;;5095116;28;20043;-58
2022/05/08 08:02:55;;;;;;;20.77;15.07;;;18.10;99.90;;;;;;5094675;28;20054;-58
2022/05/08 08:05:23;;;;;;;20.00;15.32;;;18.30;99.90;;;;;;5094857;28;20478;-58
2022/05/08 08:07:49;;;;;;;22.60;16.67;;;18.90;99.90;;;;;;5095108;28;20549;-58
2022/05/08 08:10:15;;;;;;;20.65;15.65;;;19.50;99.90;;;;;;5094846;28;20363;-58
2022/05/08 08:12:41;;;;;;;19.02;15.70;;;20.00;99.90;;;;;;5094972;28;20024;-59
2022/05/08 08:15:09;;;;;;;16.40;13.23;;;20.40;99.90;;;;;;5094718;28;20017;-58
2022/05/08 08:17:35;;;;;;;16.38;13.75;;;22.20;99.90;;;;;;5094574;28;20099;-58
2022/05/08 08:20:00;;;;;;;19.25;14.20;;;24.40;99.90;;;;;;5094568;28;20430;-58
2022/05/08 08:22:26;;;;;;;21.88;15.63;;;25.90;96.10;;;;;;5094767;28;20081;-58
2022/05/08 08:24:52;;;;;;;21.60;16.25;;;27.40;80.90;;;;;;5094362;28;20480;-58
2022/05/08 08:27:19;;;;;;;20.73;16.15;;;27.90;79.20;;;;;;5094700;28;20523;-58
2022/05/08 08:29:45;;;;;;;19.55;15.63;;;28.00;73.00;;;;;;5094683;28;20061;-58
2022/05/08 08:32:11;;;;;;;25.83;17.20;;;26.90;73.10;;;;;;5094312;28;20466;-58
2022/05/08 08:34:36;;;;;;;22.08;15.45;;;27.10;76.60;;;;;;5094266;28;20027;-58
2022/05/08 08:37:02;;;;;;;19.55;15.55;;;27.50;70.00;;;;;;5094290;28;20023;-58
2022/05/08 08:39:28;;;;;;;20.25;15.30;;;27.90;68.30;;;;;;5094089;28;20145;-58
2022/05/08 08:42:06;;;;;;;20.13;16.02;;;28.40;67.90;;;;;;5094091;28;20027;-58
2022/05/08 08:50:04;;;;;;;17.45;14.77;;;28.50;66.10;;;;;;5094406;28;20027;-58
2022/05/08 08:52:30;;;;;;;20.10;15.50;;;28.50;63.70;;;;;;5093529;28;20020;-58
2022/05/08 08:54:56;;;;;;;15.98;13.52;;;28.80;59.00;;;;;;5094087;28;20027;-58
2022/05/08 08:57:22;;;;;;;17.20;13.75;;;29.10;58.50;;;;;;5093723;28;20044;-58
2022/05/08 08:59:47;;;;;;;17.30;14.15;;;29.30;58.30;;;;;;5094093;28;20028;-58
2022/05/08 09:02:16;;;;;;;14.98;11.70;;;29.40;56.70;;;;;;5093834;28;20016;-58
2022/05/08 09:04:46;;;;;;;24.85;13.60;;;29.50;57.10;;;;;;5093912;28;20027;-58
2022/05/08 09:07:33;;;;;;;16.42;12.88;;;29.30;62.20;;;;;;5093429;28;20024;-58
2022/05/08 09:10:14;;;;;;;16.75;13.80;;;29.60;57.10;;;;;;5093773;28;20409;-58
2022/05/08 09:13:06;;;;;;;17.25;14.05;;;30.00;55.90;;;;;;5093689;28;20028;-58
2022/05/08 09:15:37;;;;;;;15.23;12.95;;;29.70;54.80;;;;;;5084639;28;20028;-58
2022/05/08 09:18:10;;;;;;;15.77;12.70;;;29.90;54.90;;;;;;5093840;28;20030;-58
2022/05/08 09:20:41;;;;;;;15.57;13.48;;;30.00;55.70;;;;;;5093404;28;20032;-58
2022/05/08 09:23:14;;;;;;;19.67;15.00;;;30.00;57.30;;;;;;5093617;28;20032;-58
2022/05/08 09:25:47;;;;;;;16.83;14.15;;;29.70;60.90;;;;;;5093639;28;20101;-58
2022/05/08 09:28:15;;;;;;;18.52;14.50;;;29.80;57.20;;;;;;5093690;28;20030;-58
2022/05/08 09:30:54;;;;;;;16.65;14.40;;;30.10;55.40;;;;;;5093431;28;20470;-58
2022/05/08 09:33:34;;;;;;;18.13;14.50;;;30.30;54.40;;;;;;5093423;28;20465;-58
2022/05/08 09:36:07;;;;;;;19.98;14.88;;;30.30;55.90;;;;;;5093481;28;20028;-58
2022/05/08 09:39:00;;;;;;;21.58;14.52;;;30.30;57.30;;;;;;5093312;28;20020;-58
2022/05/08 09:41:37;;;;;;;17.30;14.10;;;30.20;56.20;;;;;;5090059;28;20035;-58
2022/05/08 09:44:14;;;;;;;16.83;12.40;;;30.20;53.40;;;;;;5093148;28;20047;-58
2022/05/08 09:46:45;;;;;;;16.42;13.20;;;30.00;54.20;;;;;;5093779;28;20117;-58
2022/05/08 09:49:22;;;;;;;17.35;12.07;;;29.70;54.90;;;;;;5093463;28;20024;-58
2022/05/08 09:51:49;;;;;;;15.80;13.18;;;29.90;57.70;;;;;;5093330;28;20468;-58
2022/05/08 09:54:17;;;;;;;15.77;12.60;;;29.90;56.00;;;;;;5093268;28;20058;-58
2022/05/08 09:56:44;;;;;;;14.07;11.38;;;30.00;56.20;;;;;;5092991;28;20044;-58
2022/05/08 09:59:11;;;;;;;13.23;11.13;;;29.80;57.10;;;;;;5093471;28;20058;-58
2022/05/08 10:01:43;;;;;;;11.73;9.98;;;29.80;55.90;;;;;;5093376;28;20024;-58
2022/05/08 10:04:09;;;;;;;11.38;10.27;;;30.10;55.90;;;;;;5093167;28;20032;-58
2022/05/08 10:06:40;;;;;;;11.82;10.30;;;30.30;55.00;;;;;;5097095;28;20021;-58
2022/05/08 10:14:37;;;;;;;14.98;11.13;;;30.80;51.10;;;;;;5097281;28;20093;-58
2022/05/08 10:17:04;;;;;;;13.70;9.57;;;30.50;52.00;;;;;;5097295;28;20103;-58
2022/05/08 10:19:30;;;;;;;14.88;10.63;;;29.80;53.60;;;;;;5096739;28;20034;-58
2022/05/08 10:22:32;;;;;;;10.80;8.52;;;29.70;54.30;;;;;;5096872;28;20020;-59
2022/05/08 10:24:54;;;;;;;12.43;9.35;;;30.00;54.50;;;;;;5092749;28;20039;-58
2022/05/08 10:27:32;;;;;;;9.93;8.93;;;30.60;53.80;;;;;;5097064;28;20024;-58
2022/05/08 10:29:58;;;;;;;17.15;10.85;;;30.90;54.20;;;;;;5096850;28;20067;-58
2022/05/08 10:32:32;;;;;;;12.57;10.00;;;30.80;55.50;;;;;;5096667;28;20555;-58
2022/05/08 10:35:16;;;;;;;12.48;10.05;;;30.60;54.10;;;;;;5078528;28;20382;-58
2022/05/08 10:37:46;;;;;;;11.73;9.32;;;30.50;54.40;;;;;;5096561;28;20049;-58
2022/05/08 10:40:24;;;;;;;9.75;8.85;;;30.70;51.70;;;;;;5096845;28;20149;-58
2022/05/08 10:42:50;;;;;;;12.07;8.98;;;31.00;52.60;;;;;;5096313;28;20035;-58
2022/05/08 10:45:34;;;;;;;13.52;10.25;;;31.30;55.30;;;;;;5096893;28;20454;-59
2022/05/08 10:48:21;;;;;;;13.80;9.65;;;31.10;54.60;;;;;;5096474;28;20019;-58
2022/05/08 10:50:52;;;;;;;14.90;10.57;;;31.20;56.60;;;;;;5096469;28;20505;-58
2022/05/08 10:53:25;;;;;;;13.05;9.43;;;31.10;51.90;;;;;;5096083;28;20498;-58
2022/05/08 10:55:52;;;;;;;13.35;9.98;;;30.80;52.80;;;;;;5096252;28;20044;-58
2022/05/08 10:58:18;;;;;;;13.10;10.38;;;30.50;53.90;;;;;;5096507;28;20078;-58
2022/05/08 11:00:44;;;;;;;12.32;9.80;;;30.20;52.20;;;;;;5096148;28;20049;-58
2022/05/08 11:03:10;;;;;;;11.65;9.90;;;30.40;55.30;;;;;;5096019;28;20355;-58
2022/05/08 11:05:38;;;;;;;14.75;11.18;;;30.70;54.00;;;;;;5096382;28;20153;-58
2022/05/08 11:08:07;;;;;;;14.88;10.90;;;30.40;53.10;;;;;;5095964;28;20016;-59
2022/05/08 11:10:37;;;;;;;13.77;9.88;;;29.90;55.70;;;;;;5095971;28;20024;-58
2022/05/08 11:13:09;;;;;;;14.30;10.98;;;30.20;52.10;;;;;;5096232;28;20028;-58
2022/05/08 11:15:46;;;;;;;12.73;10.60;;;30.30;52.60;;;;;;5095933;28;20106;-58
2022/05/08 11:18:12;;;;;;;12.52;10.07;;;30.60;51.70;;;;;;5095905;28;20024;-58
2022/05/08 11:20:57;;;;;;;12.27;10.13;;;30.60;52.40;;;;;;5095693;28;20034;-58
2022/05/08 11:23:44;;;;;;;15.07;10.30;;;30.50;50.70;;;;;;5095689;28;20060;-58
2022/05/08 11:26:14;;;;;;;14.40;10.80;;;30.30;52.80;;;;;;5095892;28;20020;-58
2022/05/08 11:28:50;;;;;;;12.25;10.25;;;30.20;55.00;;;;;;5095763;28;20077;-58
2022/05/08 11:31:18;;;;;;;9.05;6.85;;;30.10;52.70;;;;;;5095393;28;20032;-59
2022/05/08 11:36:31;;;;;;;5.70;5.20;;;29.10;50.00;;;;;;5095634;28;20098;-58
2022/05/08 11:39:14;;;;;;;8.48;6.55;;;29.60;50.80;;;;;;5095743;28;20019;-58
2022/05/08 11:41:42;;;;;;;;;;;30.00;49.60;;;;;;5095923;28;20024;-58
2022/05/08 11:44:13;;;;;;;12.65;7.35;;;30.60;49.90;;;;;;5095503;28;19912;-59
2022/05/08 11:46:58;;;;;;;7.38;6.68;;;30.90;46.80;;;;;;5095327;28;20016;-58
2022/05/08 11:49:31;;;;;;;9.27;7.53;;;30.80;49.30;;;;;;5095385;28;20073;-58
2022/05/08 11:52:02;;;;;;;9.07;7.05;;;30.70;46.60;;;;;;5095183;28;20104;-58
2022/05/08 11:54:38;;;;;;;6.35;5.63;;;30.20;47.40;;;;;;5095634;28;20086;-58
2022/05/08 11:57:19;;;;;;;6.25;5.47;;;30.50;49.70;;;;;;5094906;28;20044;-58
2022/05/08 11:59:48;;;;;;;7.22;4.38;;;30.20;46.30;;;;;;5094976;28;20023;-58
2022/05/08 12:02:14;;;;;;;5.43;4.93;;;29.70;46.60;;;;;;5094617;28;20028;-58
2022/05/08 12:04:42;;;;;;;5.75;4.85;;;29.30;47.80;;;;;;5094894;28;20020;-59
2022/05/08 12:07:14;;;;;;;5.30;4.70;;;29.70;45.90;;;;;;5094782;28;20038;-58
2022/05/08 12:09:55;;;;;;;4.00;3.37;;;30.00;49.50;;;;;;5094825;28;20056;-58
2022/05/08 12:12:35;;;;;;;4.40;3.40;;;30.30;43.80;;;;;;5094724;28;20267;-58
2022/05/08 12:15:07;;;;;;;4.38;3.78;;;30.30;47.80;;;;;;5094825;28;20035;-58
2022/05/08 12:17:41;;;;;;;4.25;3.72;;;30.90;47.00;;;;;;5094661;28;20020;-58
2022/05/08 12:20:25;;;;;;;7.55;3.65;;;30.70;46.30;;;;;;5094635;28;20027;-58
2022/05/08 12:22:58;;;;;;;4.60;3.40;;;30.50;46.00;;;;;;5094467;28;20386;-58
2022/05/08 12:25:25;;;;;;;4.13;3.63;;;30.30;45.00;;;;;;5094518;28;20024;-58
2022/05/08 12:27:50;;;;;;;3.75;3.40;;;30.00;45.30;;;;;;5093886;28;20024;-58
2022/05/08 12:30:16;;;;;;;4.40;3.20;;;30.40;46.10;;;;;;5094222;28;20099;-58
2022/05/08 12:32:42;;;;;;;5.72;3.53;;;30.50;43.20;;;;;;5094332;28;20493;-58
2022/05/08 12:35:09;;;;;;;8.30;3.08;;;30.30;42.90;;;;;;5094318;28;20036;-58
2022/05/08 12:37:35;;;;;;;3.95;3.47;;;29.90;43.70;;;;;;5094486;28;20024;-58
2022/05/08 12:40:01;;;;;;;6.20;4.32;;;29.80;45.40;;;;;;5094191;28;20032;-58
2022/05/08 12:42:26;;;;;;;4.35;3.95;;;29.50;42.70;;;;;;5094121;28;20028;-59
2022/05/08 12:44:52;;;;;;;5.03;3.80;;;29.00;44.70;;;;;;5093844;28;20027;-58
2022/05/08 12:47:19;;;;;;;4.68;3.55;;;28.90;46.70;;;;;;5094425;28;20386;-58
2022/05/08 12:49:45;;;;;;;5.20;3.63;;;28.80;44.40;;;;;;5094062;28;20493;-58
2022/05/08 12:52:11;;;;;;;4.93;3.17;;;29.00;44.60;;;;;;5094071;28;20024;-59
2022/05/08 12:54:37;;;;;;;3.75;3.22;;;29.30;45.40;;;;;;5093922;28;20061;-58
2022/05/08 12:57:09;;;;;;;4.55;3.15;;;29.80;46.70;;;;;;5093914;28;20123;-58
2022/05/08 12:59:49;;;;;;;3.28;2.75;;;30.20;45.60;;;;;;5093626;28;20028;-59
2022/05/08 13:02:19;;;;;;;3.80;2.65;;;30.80;46.00;;;;;;5093853;28;20485;-58
2022/05/08 13:04:46;;;;;;;3.60;2.88;;;30.90;42.40;;;;;;5093871;28;20046;-59